createdAt,value
2023-02-02T00:01:13.420Z,53.27
2023-02-02T00:03:40.611Z,52.97
2023-02-02T00:06:07.466Z,53.21
2023-02-02T00:08:36.510Z,53.04
2023-02-02T00:11:03.487Z,52.95
2023-02-02T00:13:30.754Z,53.24
2023-02-02T00:15:57.537Z,53.22
2023-02-02T00:18:24.582Z,52.93
2023-02-02T00:20:51.517Z,53.22
2023-02-02T00:23:18.583Z,53.50
2023-02-02T00:25:45.378Z,53.35
2023-02-02T00:28:12.477Z,53.18
2023-02-02T00:30:39.230Z,53.37
2023-02-02T00:33:06.323Z,53.46
2023-02-02T00:35:33.103Z,53.42
2023-02-02T00:38:00.420Z,53.19
2023-02-02T00:40:28.068Z,53.08
2023-02-02T00:42:55.212Z,53.21
2023-02-02T00:45:22.296Z,53.31
2023-02-02T00:47:49.557Z,53.29
2023-02-02T00:50:19.481Z,53.08
2023-02-02T00:52:47.614Z,53.10
2023-02-02T00:55:14.734Z,53.26
2023-02-02T00:57:41.798Z,53.18
2023-02-02T01:00:09.528Z,53.30
2023-02-02T01:02:36.696Z,53.13
2023-02-02T01:05:03.570Z,53.30
2023-02-02T01:07:30.827Z,53.18
2023-02-02T01:09:57.630Z,53.17
2023-02-02T01:12:24.739Z,53.06
2023-02-02T01:14:51.559Z,52.98
2023-02-02T01:17:19.428Z,53.19
2023-02-02T01:19:46.200Z,53.58
2023-02-02T01:22:13.370Z,53.14
2023-02-02T01:24:40.281Z,53.27
2023-02-02T01:27:07.389Z,52.93
2023-02-02T01:29:34.142Z,53.17
2023-02-02T01:32:01.248Z,53.34
2023-02-02T01:34:28.199Z,53.30
2023-02-02T01:36:55.266Z,53.20
2023-02-02T01:39:22.014Z,53.14
2023-02-02T01:41:49.202Z,53.15
2023-02-02T01:45:10.406Z,53.37
2023-02-02T01:47:40.097Z,53.17
2023-02-02T01:50:06.955Z,53.22
2023-02-02T01:52:34.118Z,53.26
2023-02-02T01:55:04.459Z,53.26
2023-02-02T01:57:40.648Z,53.26
2023-02-02T02:00:10.210Z,52.87
2023-02-02T02:02:37.581Z,53.39
2023-02-02T02:05:06.172Z,53.19
2023-02-02T02:07:33.239Z,53.06
2023-02-02T02:10:00.012Z,53.21
2023-02-02T02:12:27.044Z,53.38
2023-02-02T02:15:12.477Z,53.36
2023-02-02T02:17:55.466Z,53.45
2023-02-02T02:20:59.323Z,53.34
2023-02-02T02:24:16.168Z,53.21
2023-02-02T02:26:55.231Z,53.17
2023-02-02T02:29:52.618Z,53.67
2023-02-02T02:32:43.428Z,53.17
2023-02-02T02:35:31.588Z,53.21
2023-02-02T02:38:31.695Z,53.35
2023-02-02T02:41:01.078Z,53.10
2023-02-02T02:43:29.512Z,53.42
2023-02-02T02:45:56.657Z,53.14
2023-02-02T02:48:23.509Z,53.23
2023-02-02T02:50:50.631Z,53.16
2023-02-02T02:53:20.416Z,53.21
2023-02-02T02:55:54.815Z,53.21
2023-02-02T02:58:43.270Z,53.18
2023-02-02T03:01:19.254Z,53.16
2023-02-02T03:04:07.321Z,53.24
2023-02-02T03:06:53.981Z,53.18
2023-02-02T03:09:25.816Z,53.25
2023-02-02T03:11:52.893Z,53.01
2023-02-02T03:14:19.656Z,53.00
2023-02-02T03:16:46.689Z,53.20
2023-02-02T03:19:13.468Z,53.28
2023-02-02T03:21:40.488Z,53.13
2023-02-02T03:24:07.348Z,53.44
2023-02-02T03:26:34.554Z,53.29
2023-02-02T03:29:01.355Z,53.29
2023-02-02T03:31:28.546Z,53.06
2023-02-02T03:33:55.904Z,53.14
2023-02-02T03:36:23.065Z,53.05
2023-02-02T03:38:49.793Z,53.00
2023-02-02T03:41:16.876Z,52.95
2023-02-02T03:43:43.714Z,52.95
2023-02-02T03:46:10.817Z,53.34
2023-02-02T03:48:38.381Z,53.22
2023-02-02T03:51:09.605Z,53.26
2023-02-02T03:53:36.375Z,53.09
2023-02-02T03:56:03.756Z,52.84
2023-02-02T03:58:30.464Z,53.11
2023-02-02T04:01:08.312Z,52.93
2023-02-02T04:03:35.106Z,52.95
2023-02-02T04:06:02.240Z,53.02
2023-02-02T04:08:28.981Z,52.79
2023-02-02T04:10:55.998Z,52.82
2023-02-02T04:13:22.847Z,52.64
2023-02-02T04:15:57.215Z,52.56
2023-02-02T04:18:24.044Z,52.79
2023-02-02T04:20:56.381Z,52.60
2023-02-02T04:23:23.184Z,52.50
2023-02-02T04:25:50.867Z,51.82
2023-02-02T04:28:17.737Z,52.43
2023-02-02T04:30:44.832Z,52.12
2023-02-02T04:33:11.636Z,51.98
2023-02-02T04:35:38.666Z,52.42
2023-02-02T04:38:05.422Z,52.02
2023-02-02T04:40:32.584Z,52.20
2023-02-02T04:42:59.312Z,52.11
2023-02-02T04:45:26.688Z,52.18
2023-02-02T04:47:53.569Z,52.13
2023-02-02T04:50:20.639Z,52.12
2023-02-02T04:52:47.391Z,52.05
2023-02-02T04:55:14.644Z,52.17
2023-02-02T04:57:41.420Z,52.11
2023-02-02T05:00:11.345Z,52.16
2023-02-02T05:02:39.042Z,52.11
2023-02-02T05:05:07.336Z,52.20
2023-02-02T05:07:34.139Z,51.90
2023-02-02T05:10:01.256Z,51.92
2023-02-02T05:12:28.004Z,51.88
2023-02-02T05:14:55.101Z,51.71
2023-02-02T05:17:21.851Z,51.49
2023-02-02T05:19:48.864Z,51.75
2023-02-02T05:22:15.580Z,51.59
2023-02-02T05:24:42.572Z,51.68
2023-02-02T05:27:09.328Z,51.61
2023-02-02T05:29:36.415Z,51.92
2023-02-02T05:32:03.275Z,51.70
2023-02-02T05:34:30.315Z,51.39
2023-02-02T05:36:57.067Z,51.88
2023-02-02T05:39:24.191Z,52.01
2023-02-02T05:41:50.942Z,51.70
2023-02-02T05:44:18.120Z,51.49
2023-02-02T05:46:45.663Z,51.55
2023-02-02T05:49:13.732Z,51.57
2023-02-02T05:51:46.201Z,51.52
2023-02-02T05:54:17.320Z,51.40
2023-02-02T05:56:44.031Z,51.17
2023-02-02T05:59:11.132Z,51.39
2023-02-02T06:01:37.874Z,51.10
2023-02-02T06:04:04.934Z,51.30
2023-02-02T06:06:31.757Z,51.15
2023-02-02T06:08:58.803Z,51.04
2023-02-02T06:11:25.715Z,51.02
2023-02-02T06:13:52.779Z,51.14
2023-02-02T06:16:19.506Z,51.35
2023-02-02T06:18:47.035Z,51.46
2023-02-02T06:21:13.935Z,51.45
2023-02-02T06:23:45.852Z,51.31
2023-02-02T06:26:13.411Z,51.54
2023-02-02T06:28:40.865Z,51.53
2023-02-02T06:31:09.534Z,51.50
2023-02-02T06:33:37.208Z,51.66
2023-02-02T06:36:05.632Z,51.49
2023-02-02T06:38:32.749Z,51.38
2023-02-02T06:41:00.411Z,51.57
2023-02-02T06:43:28.129Z,51.64
2023-02-02T06:45:54.961Z,51.51
2023-02-02T06:48:22.038Z,51.57
2023-02-02T06:50:48.770Z,51.52
2023-02-02T06:53:22.139Z,51.49
2023-02-02T06:55:59.474Z,51.48
2023-02-02T06:58:27.107Z,51.50
2023-02-02T07:00:53.954Z,51.61
2023-02-02T07:03:21.476Z,51.57
2023-02-02T07:05:49.064Z,51.58
2023-02-02T07:08:16.382Z,51.30
2023-02-02T07:11:14.738Z,51.57
2023-02-02T07:13:31.799Z,51.58
2023-02-02T07:15:58.653Z,51.44
2023-02-02T07:18:25.886Z,51.25
2023-02-02T07:20:52.684Z,51.53
2023-02-02T07:23:19.797Z,51.42
2023-02-02T07:25:46.691Z,51.35
2023-02-02T07:28:13.833Z,51.61
2023-02-02T07:30:40.708Z,51.69
2023-02-02T07:33:07.775Z,51.80
2023-02-02T07:35:35.039Z,51.39
2023-02-02T07:38:02.200Z,51.67
2023-02-02T07:40:28.957Z,51.78
2023-02-02T07:42:56.313Z,51.38
2023-02-02T07:45:25.541Z,51.59
2023-02-02T07:48:00.582Z,51.34
2023-02-02T07:50:28.375Z,51.38
2023-02-02T07:52:55.417Z,51.64
2023-02-02T07:55:22.210Z,51.65
2023-02-02T07:57:51.431Z,51.71
2023-02-02T08:00:18.764Z,51.75
2023-02-02T08:02:49.016Z,51.44
2023-02-02T08:05:16.100Z,51.34
2023-02-02T08:07:44.782Z,51.70
2023-02-02T08:10:11.689Z,51.48
2023-02-02T08:12:38.736Z,51.44
2023-02-02T08:15:06.360Z,51.44
2023-02-02T08:17:33.501Z,51.49
2023-02-02T08:20:00.315Z,51.67
2023-02-02T08:22:27.376Z,51.39
2023-02-02T08:24:54.131Z,51.47
2023-02-02T08:27:21.212Z,51.54
2023-02-02T08:29:48.075Z,51.48
2023-02-02T08:32:16.286Z,51.12
2023-02-02T08:34:43.173Z,51.30
2023-02-02T08:37:11.095Z,51.27
2023-02-02T08:39:37.991Z,51.45
2023-02-02T08:42:05.127Z,51.52
2023-02-02T08:44:43.105Z,51.49
2023-02-02T08:47:18.953Z,51.21
2023-02-02T08:49:45.794Z,51.50
2023-02-02T08:52:12.945Z,51.42
2023-02-02T08:54:39.737Z,51.98
2023-02-02T08:57:06.876Z,51.78
2023-02-02T08:59:33.643Z,51.93
2023-02-02T09:02:00.806Z,51.52
2023-02-02T09:04:27.637Z,51.80
2023-02-02T09:06:54.755Z,51.63
2023-02-02T09:09:21.505Z,51.60
2023-02-02T09:11:48.554Z,51.66
2023-02-02T09:14:15.452Z,51.58
2023-02-02T09:16:42.639Z,51.76
2023-02-02T09:19:10.681Z,51.66
2023-02-02T09:21:37.821Z,51.51
2023-02-02T09:24:09.605Z,51.52
2023-02-02T09:26:37.453Z,51.82
2023-02-02T09:29:05.516Z,51.66
2023-02-02T09:31:36.646Z,52.15
2023-02-02T09:34:04.834Z,51.80
2023-02-02T09:36:32.284Z,51.72
2023-02-02T09:38:59.123Z,51.86
2023-02-02T09:41:38.404Z,51.55
2023-02-02T09:44:05.272Z,51.40
2023-02-02T09:46:38.091Z,51.51
2023-02-02T09:49:09.905Z,51.60
2023-02-02T09:51:46.647Z,51.51
2023-02-02T09:54:30.151Z,51.58
2023-02-02T09:56:57.605Z,51.56
2023-02-02T09:59:27.718Z,51.80
2023-02-02T10:01:57.323Z,51.91
2023-02-02T10:04:24.054Z,51.95
2023-02-02T10:06:52.804Z,51.60
2023-02-02T10:09:39.391Z,51.74
2023-02-02T10:12:35.974Z,51.84
2023-02-02T10:15:06.488Z,51.85
2023-02-02T10:17:53.550Z,52.07
2023-02-02T10:20:43.729Z,52.19
2023-02-02T10:23:19.286Z,52.21
2023-02-02T10:25:55.358Z,52.18
2023-02-02T10:28:36.320Z,52.21
2023-02-02T10:31:03.224Z,52.10
2023-02-02T10:33:37.948Z,52.08
2023-02-02T10:36:10.945Z,52.18
2023-02-02T10:39:17.041Z,52.37
2023-02-02T10:42:24.031Z,52.53
2023-02-02T10:44:55.011Z,52.52
2023-02-02T10:47:32.180Z,52.62
2023-02-02T10:50:22.629Z,53.03
2023-02-02T10:52:55.238Z,53.04
2023-02-02T10:55:22.676Z,52.78
2023-02-02T10:58:10.791Z,52.83
2023-02-02T11:00:52.644Z,53.05
2023-02-02T11:03:25.114Z,53.26
2023-02-02T11:06:10.847Z,53.11
2023-02-02T11:08:39.046Z,53.38
2023-02-02T11:11:28.410Z,53.33
2023-02-02T11:14:02.044Z,53.26
2023-02-02T11:16:42.114Z,53.32
2023-02-02T11:19:15.313Z,53.25
2023-02-02T11:21:42.518Z,53.39
2023-02-02T11:24:21.483Z,53.58
2023-02-02T11:26:55.913Z,53.35
2023-02-02T11:29:25.710Z,53.45
2023-02-02T11:31:52.844Z,53.28
2023-02-02T11:34:20.952Z,53.18
2023-02-02T11:37:12.136Z,53.42
2023-02-02T11:39:40.281Z,53.52
2023-02-02T11:42:16.273Z,53.36
2023-02-02T11:44:47.356Z,53.36
2023-02-02T11:47:22.712Z,53.43
2023-02-02T11:49:51.610Z,53.69
2023-02-02T11:52:21.543Z,53.19
2023-02-02T11:54:50.542Z,53.47
2023-02-02T11:57:22.108Z,53.34
2023-02-02T11:59:50.304Z,53.38
2023-02-02T12:02:20.494Z,53.41
2023-02-02T12:04:48.207Z,53.56
2023-02-02T12:07:27.376Z,53.58
2023-02-02T12:09:54.338Z,53.76
2023-02-02T12:12:27.456Z,53.45
2023-02-02T12:15:19.879Z,53.42
2023-02-02T12:17:47.048Z,53.49
2023-02-02T12:20:44.853Z,53.22
2023-02-02T12:23:21.101Z,53.20
2023-02-02T12:26:00.388Z,53.47
2023-02-02T12:28:46.772Z,53.21
2023-02-02T12:31:26.496Z,53.34
2023-02-02T12:34:13.281Z,53.15
2023-02-02T12:36:47.710Z,53.12
2023-02-02T12:39:17.865Z,52.93
2023-02-02T12:41:44.612Z,52.79
2023-02-02T12:44:30.498Z,53.12
2023-02-02T12:47:20.170Z,53.36
2023-02-02T12:50:10.600Z,53.14
2023-02-02T12:52:55.919Z,52.89
2023-02-02T12:56:16.254Z,52.96
2023-02-02T12:58:51.451Z,52.57
2023-02-02T13:01:48.175Z,52.74
2023-02-02T13:07:38.697Z,52.94
2023-02-02T13:10:11.600Z,52.51
2023-02-02T13:12:42.518Z,52.85
2023-02-02T13:15:12.885Z,52.73
2023-02-02T13:17:43.690Z,52.71
2023-02-02T13:20:30.887Z,53.22
2023-02-02T13:23:00.273Z,53.22
2023-02-02T13:25:30.225Z,52.86
2023-02-02T13:27:58.993Z,53.07
2023-02-02T13:30:38.287Z,53.02
2023-02-02T13:33:13.034Z,53.18
2023-02-02T13:35:47.778Z,52.91
2023-02-02T13:38:25.567Z,52.98
2023-02-02T13:40:55.421Z,53.10
2023-02-02T13:43:22.592Z,53.31
2023-02-02T13:46:39.629Z,52.99
2023-02-02T13:49:16.167Z,53.20
2023-02-02T13:51:58.221Z,53.20
2023-02-02T13:54:45.745Z,53.29
2023-02-02T13:57:40.798Z,53.38
2023-02-02T14:00:21.451Z,53.02
2023-02-02T14:02:54.028Z,52.94
2023-02-02T14:05:21.491Z,53.09
2023-02-02T14:07:48.484Z,53.09
2023-02-02T14:10:35.409Z,52.87
2023-02-02T14:13:06.490Z,53.28
2023-02-02T14:15:38.444Z,53.06
2023-02-02T14:18:05.503Z,53.22
2023-02-02T14:20:43.681Z,53.36
2023-02-02T14:23:48.342Z,52.94
2023-02-02T14:26:19.857Z,52.91
2023-02-02T14:28:51.265Z,53.04
2023-02-02T14:31:27.295Z,53.19
2023-02-02T14:34:30.672Z,53.03
2023-02-02T14:37:01.809Z,52.92
2023-02-02T14:39:30.183Z,52.83
2023-02-02T14:42:31.724Z,52.82
2023-02-02T14:45:11.682Z,52.83
2023-02-02T14:47:44.781Z,52.92
2023-02-02T14:50:16.116Z,53.00
2023-02-02T14:52:43.325Z,53.22
2023-02-02T14:55:18.438Z,53.07
2023-02-02T14:57:45.515Z,53.09
2023-02-02T15:00:23.090Z,53.23
2023-02-02T15:02:53.514Z,53.18
2023-02-02T15:05:39.032Z,53.43
2023-02-02T15:08:07.313Z,53.54
2023-02-02T15:11:24.284Z,53.65
2023-02-02T15:13:54.625Z,53.35
2023-02-02T15:16:27.639Z,53.34
2023-02-02T15:19:13.553Z,53.89
2023-02-02T15:21:40.481Z,53.44
2023-02-02T15:24:17.058Z,53.32
2023-02-02T15:26:43.960Z,53.33
2023-02-02T15:29:17.327Z,53.13
2023-02-02T15:31:49.753Z,53.12
2023-02-02T15:34:42.876Z,53.03
2023-02-02T15:37:14.513Z,53.06
2023-02-02T15:39:51.845Z,53.31
2023-02-02T15:42:49.122Z,53.29
2023-02-02T15:45:28.767Z,52.86
2023-02-02T15:47:56.281Z,52.75
2023-02-02T15:50:23.325Z,53.10
2023-02-02T15:52:50.888Z,52.75
2023-02-02T15:55:39.602Z,52.81
2023-02-02T15:58:32.093Z,53.01
2023-02-02T16:01:30.373Z,52.95
2023-02-02T16:03:57.117Z,52.78
2023-02-02T16:06:24.205Z,52.84
2023-02-02T16:08:50.957Z,52.90
2023-02-02T16:11:20.094Z,52.89
2023-02-02T16:14:08.207Z,53.31
2023-02-02T16:16:36.875Z,52.93
2023-02-02T16:19:06.788Z,53.08
2023-02-02T16:21:34.649Z,53.17
2023-02-02T16:24:01.733Z,52.92
2023-02-02T16:26:29.601Z,52.98
2023-02-02T16:28:56.385Z,53.04
2023-02-02T16:31:23.477Z,53.00
2023-02-02T16:33:51.324Z,52.97
2023-02-02T16:36:24.522Z,53.21
2023-02-02T16:38:52.520Z,53.12
2023-02-02T16:41:34.286Z,52.99
2023-02-02T16:44:39.132Z,52.99
2023-02-02T16:47:26.137Z,52.89
2023-02-02T16:49:53.241Z,53.01
2023-02-02T16:52:21.365Z,53.16
2023-02-02T16:54:55.247Z,52.98
2023-02-02T16:57:25.408Z,52.89
2023-02-02T17:00:00.149Z,52.82
2023-02-02T17:02:28.567Z,52.98
2023-02-02T17:05:01.178Z,52.74
2023-02-02T17:07:28.878Z,53.04
2023-02-02T17:10:19.095Z,52.93
2023-02-02T17:12:46.206Z,52.83
2023-02-02T17:15:34.967Z,52.84
2023-02-02T17:18:03.972Z,52.50
2023-02-02T17:20:30.762Z,52.83
2023-02-02T17:23:00.250Z,52.66
2023-02-02T17:25:36.165Z,52.96
2023-02-02T17:28:03.606Z,52.74
2023-02-02T17:30:30.551Z,52.83
2023-02-02T17:32:57.775Z,52.82
2023-02-02T17:35:26.674Z,52.91
2023-02-02T17:37:54.243Z,52.70
2023-02-02T17:40:23.255Z,52.79
2023-02-02T17:42:51.913Z,52.71
2023-02-02T17:45:23.253Z,52.61
2023-02-02T17:47:50.928Z,52.69
2023-02-02T17:50:17.799Z,52.71
2023-02-02T17:52:45.998Z,52.99
2023-02-02T17:55:14.365Z,53.30
2023-02-02T17:57:41.509Z,52.95
2023-02-02T18:00:08.956Z,53.21
2023-02-02T18:02:36.158Z,53.50
2023-02-02T18:05:04.039Z,53.37
2023-02-02T18:07:31.158Z,53.49
2023-02-02T18:09:58.002Z,53.64
2023-02-02T18:12:25.170Z,53.39
2023-02-02T18:14:51.945Z,53.53
2023-02-02T18:17:19.176Z,53.33
2023-02-02T18:19:47.272Z,53.27
2023-02-02T18:22:14.506Z,53.44
2023-02-02T18:24:41.366Z,53.18
2023-02-02T18:27:08.968Z,53.40
2023-02-02T18:29:36.058Z,53.02
2023-02-02T18:32:03.282Z,53.19
2023-02-02T18:34:33.426Z,53.22
2023-02-02T18:37:00.547Z,53.10
2023-02-02T18:39:27.405Z,53.26
2023-02-02T18:41:54.470Z,53.13
2023-02-02T18:44:22.412Z,53.19
2023-02-02T18:46:50.789Z,53.03
2023-02-02T18:49:18.024Z,53.11
2023-02-02T18:51:46.306Z,52.90
2023-02-02T18:54:13.101Z,53.14
2023-02-02T18:56:40.312Z,52.89
2023-02-02T18:59:07.137Z,52.93
2023-02-02T19:01:34.285Z,53.06
2023-02-02T19:04:01.348Z,52.66
2023-02-02T19:06:46.967Z,52.51
2023-02-02T19:09:14.345Z,52.72
2023-02-02T19:11:44.473Z,52.80
2023-02-02T19:14:19.395Z,52.58
2023-02-02T19:16:48.350Z,52.72
2023-02-02T19:19:33.425Z,52.60
2023-02-02T19:22:01.876Z,52.58
2023-02-02T19:24:40.095Z,52.49
2023-02-02T19:27:23.063Z,52.25
2023-02-02T19:29:52.014Z,52.29
2023-02-02T19:32:23.573Z,52.33
2023-02-02T19:34:55.269Z,52.12
2023-02-02T19:37:27.530Z,52.16
2023-02-02T19:40:09.681Z,51.80
2023-02-02T19:42:59.633Z,52.00
2023-02-02T19:45:30.138Z,52.08
2023-02-02T19:47:57.989Z,51.65
2023-02-02T19:50:26.891Z,51.85
2023-02-02T19:52:54.606Z,51.84
2023-02-02T19:55:29.248Z,51.56
2023-02-02T19:58:01.351Z,51.49
2023-02-02T20:00:29.939Z,51.93
2023-02-02T20:03:00.901Z,51.62
2023-02-02T20:05:48.500Z,51.53
2023-02-02T20:08:25.935Z,51.48
2023-02-02T20:10:56.246Z,51.39
2023-02-02T20:13:42.002Z,51.69
2023-02-02T20:16:15.744Z,51.43
2023-02-02T20:18:45.341Z,51.23
2023-02-02T20:21:39.079Z,51.39
2023-02-02T20:24:18.216Z,51.23
2023-02-02T20:26:45.113Z,51.32
2023-02-02T20:29:15.176Z,51.30
2023-02-02T20:31:42.032Z,51.20
2023-02-02T20:34:37.992Z,51.36
2023-02-02T20:37:15.964Z,51.22
2023-02-02T20:39:47.902Z,51.33
2023-02-02T20:42:15.088Z,51.74
2023-02-02T20:44:42.622Z,51.10
2023-02-02T20:47:09.954Z,51.10
2023-02-02T20:49:38.868Z,50.95
2023-02-02T20:52:08.185Z,51.01
2023-02-02T20:54:35.270Z,51.41
2023-02-02T20:57:02.414Z,51.22
2023-02-02T20:59:29.532Z,50.80
2023-02-02T21:01:56.387Z,51.18
2023-02-02T21:04:23.483Z,51.06
2023-02-02T21:06:50.321Z,50.71
2023-02-02T21:09:17.561Z,50.75
2023-02-02T21:11:44.425Z,51.18
2023-02-02T21:14:11.585Z,51.00
2023-02-02T21:16:38.544Z,50.91
2023-02-02T21:19:05.629Z,50.85
2023-02-02T21:21:32.453Z,50.63
2023-02-02T21:24:00.817Z,50.91
2023-02-02T21:26:30.250Z,50.76
2023-02-02T21:28:58.466Z,50.65
2023-02-02T21:31:25.718Z,50.86
2023-02-02T21:33:53.276Z,51.08
2023-02-02T21:36:39.164Z,50.81
2023-02-02T21:39:25.760Z,50.80
2023-02-02T21:42:07.345Z,50.94
2023-02-02T21:44:35.433Z,50.57
2023-02-02T21:47:02.362Z,50.70
2023-02-02T21:49:35.676Z,50.81
2023-02-02T21:52:10.068Z,51.07
2023-02-02T21:54:37.240Z,51.07
2023-02-02T21:57:22.252Z,50.89
2023-02-02T21:59:58.447Z,50.96
2023-02-02T22:02:44.481Z,51.40
2023-02-02T22:05:47.519Z,50.86
2023-02-02T22:08:24.207Z,50.82
2023-02-02T22:10:51.287Z,50.97
2023-02-02T22:13:20.070Z,50.75
2023-02-02T22:15:48.110Z,50.99
2023-02-02T22:18:23.199Z,50.84
2023-02-02T22:20:51.857Z,50.89
2023-02-02T22:23:20.329Z,51.00
2023-02-02T22:25:48.744Z,50.68
2023-02-02T22:28:21.583Z,50.96
2023-02-02T22:30:49.378Z,50.96
2023-02-02T22:33:16.338Z,50.86
2023-02-02T22:35:43.510Z,50.97
2023-02-02T22:38:10.600Z,50.79
2023-02-02T22:40:38.019Z,51.13
2023-02-02T22:43:05.883Z,50.76
2023-02-02T22:45:33.074Z,51.11
2023-02-02T22:47:59.857Z,51.12
2023-02-02T22:50:28.888Z,51.00
2023-02-02T22:52:56.001Z,51.43
2023-02-02T22:55:23.735Z,51.12
2023-02-02T22:57:50.573Z,50.96
2023-02-02T23:00:20.315Z,51.19
2023-02-02T23:02:47.117Z,51.31
2023-02-02T23:05:16.690Z,51.25
2023-02-02T23:07:44.262Z,51.20
2023-02-02T23:10:18.940Z,51.09
2023-02-02T23:12:46.142Z,51.44
2023-02-02T23:15:13.628Z,51.74
2023-02-02T23:17:40.456Z,51.48
2023-02-02T23:20:09.445Z,51.57
2023-02-02T23:22:36.266Z,51.59
2023-02-02T23:25:03.401Z,51.28
2023-02-02T23:27:30.357Z,51.18
2023-02-02T23:29:57.392Z,51.18
2023-02-02T23:32:24.257Z,51.15
2023-02-02T23:34:51.327Z,51.44
2023-02-02T23:37:18.155Z,51.37
2023-02-02T23:39:45.254Z,51.18
2023-02-02T23:42:11.991Z,51.45
2023-02-02T23:44:39.070Z,51.40
2023-02-02T23:47:05.820Z,51.58
2023-02-02T23:49:33.002Z,51.23
2023-02-02T23:51:59.941Z,51.86
2023-02-02T23:54:27.190Z,51.55
2023-02-02T23:56:53.951Z,51.39
2023-02-02T23:59:21.021Z,51.33
